Time;durP1;ratioP1;P1;durP2;ratioP2;P2;SDS_P1;SDS_P2;PMS_P1;PMS_P2;Temp;Humidity;BMP_temperature;BMP_pressure;BME280_temperature;BME280_humidity;BME280_pressure;Samples;Min_cycle;Max_cycle;Signal;HPM_P1;HPM_P2
2021/06/15 00:00:16;;;;;;;;;6.00;6.00;;;;;29.68;34.26;101059.81;4990721;28;45503;-76
2021/06/15 00:02:44;;;;;;;;;7.00;7.00;;;;;29.68;34.38;101062.53;5000166;28;45542;-76
2021/06/15 00:05:10;;;;;;;;;10.25;8.75;;;;;29.66;33.59;101055.53;4983996;28;48118;-76
2021/06/15 00:07:36;;;;;;;;;8.00;7.00;;;;;29.67;33.92;101058.09;4980825;28;45188;-76
2021/06/15 00:10:06;;;;;;;;;6.00;6.00;;;;;29.61;33.93;101049.56;4974546;28;45212;-76
2021/06/15 00:12:31;;;;;;;;;7.25;7.00;;;;;29.66;34.20;101060.91;4967098;28;45494;-76
2021/06/15 00:14:57;;;;;;;;;7.00;6.25;;;;;29.65;34.40;101053.78;5000150;28;46944;-76
2021/06/15 00:17:22;;;;;;;;;9.00;9.00;;;;;29.65;34.19;101037.66;4983402;28;45350;-76
2021/06/15 00:19:47;;;;;;;;;8.75;7.75;;;;;29.63;33.96;101047.66;4991282;28;45883;-76
2021/06/15 00:22:13;;;;;;;;;6.25;6.25;;;;;29.59;33.77;101044.28;4964282;28;45596;-76
2021/06/15 00:24:38;;;;;;;;;7.50;6.50;;;;;29.62;33.73;101053.97;4991815;28;45317;-76
2021/06/15 00:27:04;;;;;;;;;7.25;6.75;;;;;29.62;34.01;101051.28;4979933;28;45516;-76
2021/06/15 00:29:29;;;;;;;;;7.25;6.25;;;;;29.60;34.11;101050.53;4980309;28;45258;-76
2021/06/15 00:31:57;;;;;;;;;9.25;8.00;;;;;29.55;34.82;101046.34;4981343;28;45416;-76
2021/06/15 00:34:22;;;;;;;;;8.25;7.50;;;;;29.51;34.78;101038.53;4969137;28;58619;-76
2021/06/15 00:36:48;;;;;;;;;9.00;7.25;;;;;29.55;34.90;101048.16;4979640;28;59859;-76
2021/06/15 00:39:13;;;;;;;;;7.00;6.75;;;;;29.51;34.97;101047.47;4981562;28;45237;-76
2021/06/15 00:41:50;;;;;;;;;7.00;7.00;;;;;29.51;34.45;101055.53;4993979;28;58340;-76
2021/06/15 00:44:16;;;;;;;;;8.00;7.25;;;;;29.50;34.96;101050.28;4990198;28;46312;-76
2021/06/15 00:46:41;;;;;;;;;9.50;9.50;;;;;29.45;35.01;101047.88;4999230;28;47360;-76
2021/06/15 00:49:10;;;;;;;;;9.25;8.75;;;;;29.48;35.19;101054.88;4990069;28;60196;-76
2021/06/15 00:51:35;;;;;;;;;9.25;9.25;;;;;29.47;35.60;101058.53;4966695;28;45644;-76
2021/06/15 00:54:01;;;;;;;;;9.75;8.25;;;;;29.44;35.80;101050.63;4995836;28;46723;-76
2021/06/15 00:56:27;;;;;;;;;9.50;9.00;;;;;29.45;35.39;101055.94;4997284;28;45369;-76
2021/06/15 00:58:52;;;;;;;;;11.25;10.50;;;;;29.43;36.10;101054.28;4999544;28;45266;-76
2021/06/15 01:01:18;;;;;;;;;8.75;8.75;;;;;29.43;36.03;101052.47;4983331;28;45218;-76
2021/06/15 01:03:43;;;;;;;;;8.25;8.25;;;;;29.41;35.39;101046.31;4979720;28;45350;-76
2021/06/15 01:06:12;;;;;;;;;7.00;7.00;;;;;29.38;35.92;101057.28;4963117;28;51929;-76
2021/06/15 01:09:12;;;;;;;;;10.50;10.00;;;;;29.41;35.74;101053.53;4962683;28;45337;-77
2021/06/15 01:11:59;;;;;;;;;10.50;10.50;;;;;29.40;35.76;101058.03;4966634;28;45272;-76
2021/06/15 01:14:51;;;;;;;;;9.00;8.25;;;;;29.39;35.67;101055.47;4981847;28;46770;-76
2021/06/15 01:17:23;;;;;;;;;11.75;10.50;;;;;29.39;36.07;101055.47;4970550;28;45254;-76
2021/06/15 01:20:09;;;;;;;;;9.00;8.25;;;;;29.40;36.49;101062.56;4983362;28;45378;-76
2021/06/15 01:22:41;;;;;;;;;10.00;10.00;;;;;29.42;36.33;101055.25;4999108;28;45483;-76
2021/06/15 01:25:12;;;;;;;;;10.75;9.75;;;;;29.40;35.89;101051.81;4995673;28;47189;-76
2021/06/15 01:28:03;;;;;;;;;9.25;9.25;;;;;29.42;36.23;101056.13;4983166;28;45439;-76
2021/06/15 01:30:34;;;;;;;;;10.25;9.50;;;;;29.41;36.24;101057.06;4996587;28;45372;-76
2021/06/15 01:33:02;;;;;;;;;9.75;8.75;;;;;29.40;35.85;101054.50;4982954;28;45365;-76
2021/06/15 01:35:28;;;;;;;;;9.50;8.75;;;;;29.41;36.10;101061.59;4982600;28;45445;-76
2021/06/15 01:37:57;;;;;;;;;9.00;7.75;;;;;29.41;36.64;101056.22;4982468;28;45357;-76
2021/06/15 01:40:50;;;;;;;;;8.00;8.00;;;;;29.38;35.98;101048.34;4963305;28;45327;-76
2021/06/15 01:43:19;;;;;;;;;8.00;8.00;;;;;29.35;35.95;101051.22;4976826;28;45294;-76
2021/06/15 01:45:46;;;;;;;;;7.00;7.00;;;;;29.30;35.78;101045.28;4963230;28;46303;-76
2021/06/15 01:48:36;;;;;;;;;8.75;8.75;;;;;29.31;36.00;101047.03;4978667;28;45870;-76
2021/06/15 01:51:03;;;;;;;;;10.50;10.50;;;;;29.29;36.63;101044.44;4990337;28;45322;-76
2021/06/15 01:53:29;;;;;;;;;10.25;10.25;;;;;29.31;36.71;101047.88;4966364;28;46311;-76
2021/06/15 01:55:55;;;;;;;;;9.50;9.50;;;;;29.30;36.87;101045.28;4999941;28;46434;-76
2021/06/15 01:58:21;;;;;;;;;11.50;10.50;;;;;29.29;36.51;101044.44;4982367;28;45326;-76
2021/06/15 02:00:47;;;;;;;;;12.75;10.50;;;;;29.25;36.91;101037.50;4982345;28;45380;-76
2021/06/15 02:03:14;;;;;;;;;12.00;10.50;;;;;29.22;36.94;101043.09;4953108;28;45280;-76
2021/06/15 02:06:06;;;;;;;;;9.00;9.00;;;;;29.17;36.44;101048.75;4986084;28;46087;-76
2021/06/15 02:08:36;;;;;;;;;10.25;9.75;;;;;29.16;37.34;101055.09;4976791;28;46235;-76
2021/06/15 02:11:02;;;;;;;;;9.00;8.00;;;;;29.12;36.82;101050.03;4979092;28;45234;-76
2021/06/15 02:13:32;;;;;;;;;10.00;9.25;;;;;29.15;36.83;101052.50;4978919;28;45256;-76
2021/06/15 02:15:59;;;;;;;;;11.25;10.00;;;;;29.11;36.86;101051.84;4979868;28;46356;-76
2021/06/15 02:18:24;;;;;;;;;11.00;11.00;;;;;29.05;36.91;101052.22;4962514;28;45632;-76
2021/06/15 02:20:50;;;;;;;;;10.25;9.25;;;;;29.03;37.79;101054.16;4982926;28;45305;-76
2021/06/15 02:23:20;;;;;;;;;9.75;9.25;;;;;29.03;37.40;101051.47;4957365;28;57055;-76
2021/06/15 02:25:46;;;;;;;;;11.75;10.00;;;;;29.02;37.20;101057.81;4984507;28;45440;-76
2021/06/15 02:28:12;;;;;;;;;9.25;9.25;;;;;28.99;36.95;101041.84;4989514;28;45472;-76
2021/06/15 02:30:37;;;;;;;;;9.50;9.50;;;;;28.98;37.21;101046.38;4980793;28;45377;-76
2021/06/15 02:33:07;;;;;;;;;11.50;11.50;;;;;28.93;37.88;101043.13;4976806;28;60797;-76
2021/06/15 02:35:32;;;;;;;;;11.75;9.25;;;;;28.96;37.67;101059.03;4969069;28;47488;-76
2021/06/15 02:38:09;;;;;;;;;11.50;11.50;;;;;28.97;37.86;101058.09;5005741;28;48816;-76
2021/06/15 02:40:34;;;;;;;;;13.75;8.75;;;;;28.94;37.61;101047.53;4966535;28;45461;-76
2021/06/15 02:43:00;;;;;;;;;10.25;9.75;;;;;28.82;37.93;101039.31;5000837;28;45703;-76
2021/06/15 02:45:28;;;;;;;;;12.75;9.50;;;;;28.88;37.93;101045.19;4981814;28;46073;-76
2021/06/15 02:47:54;;;;;;;;;10.25;10.25;;;;;28.89;37.73;101051.44;4965648;28;45331;-76
2021/06/15 02:50:19;;;;;;;;;12.25;12.25;;;;;28.83;37.53;101047.28;4965769;28;45382;-76
2021/06/15 02:52:48;;;;;;;;;11.50;10.50;;;;;28.79;37.51;101055.66;4985549;28;60886;-76
2021/06/15 02:55:19;;;;;;;;;11.25;11.25;;;;;28.74;37.87;101061.28;4973560;28;47154;-76
2021/06/15 02:57:44;;;;;;;;;9.75;9.75;;;;;28.69;37.76;101053.53;4969916;28;45276;-76
2021/06/15 03:00:11;;;;;;;;;12.75;11.00;;;;;28.71;37.87;101050.75;4989806;28;45507;-75
2021/06/15 03:02:36;;;;;;;;;10.50;10.50;;;;;28.75;37.66;101056.78;4983053;28;45391;-76
2021/06/15 03:05:08;;;;;;;;;9.75;9.75;;;;;28.72;37.65;101055.16;4965181;28;46998;-76
2021/06/15 03:07:33;;;;;;;;;9.50;9.50;;;;;28.67;38.09;101052.75;4981411;28;45418;-75
2021/06/15 03:10:01;;;;;;;;;12.00;10.75;;;;;28.65;37.69;101059.16;4965335;28;45785;-76
2021/06/15 03:12:26;;;;;;;;;12.00;11.00;;;;;28.63;37.84;101053.91;4965322;28;45368;-76
2021/06/15 03:15:11;;;;;;;;;13.00;11.25;;;;;28.64;37.92;101058.31;4965172;28;45194;-76
2021/06/15 03:17:39;;;;;;;;;10.00;10.00;;;;;28.65;37.85;101051.09;4964711;28;46259;-75
2021/06/15 03:20:09;;;;;;;;;9.75;9.75;;;;;28.66;38.33;101056.38;4978305;28;45353;-76
2021/06/15 03:23:07;;;;;;;;;9.75;9.00;;;;;28.67;37.81;101054.59;4968587;28;45260;-76
2021/06/15 03:25:33;;;;;;;;;9.50;8.50;;;;;28.64;37.85;101052.94;4983182;28;45456;-76
2021/06/15 03:28:10;;;;;;;;;8.75;8.75;;;;;28.62;38.29;101049.47;4955935;28;45330;-75
2021/06/15 03:30:35;;;;;;;;;9.75;9.25;;;;;28.63;37.71;101048.53;4971153;28;45464;-76
2021/06/15 03:33:09;;;;;;;;;9.50;9.00;;;;;28.63;37.63;101048.53;4983714;28;45327;-75
2021/06/15 03:35:37;;;;;;;;;12.75;11.75;;;;;28.61;37.48;101045.06;4968037;28;47259;-75
2021/06/15 03:38:03;;;;;;;;;12.75;10.75;;;;;28.59;37.33;101051.50;4968321;28;45468;-76
2021/06/15 03:40:34;;;;;;;;;11.75;10.00;;;;;28.59;37.22;101056.88;4965064;28;45452;-75
2021/06/15 03:42:59;;;;;;;;;10.25;9.75;;;;;28.51;38.09;101054.66;4994520;28;45449;-76
2021/06/15 03:45:26;;;;;;;;;10.25;10.25;;;;;28.57;37.62;101059.63;5001662;28;50141;-76
2021/06/15 03:47:51;;;;;;;;;12.50;10.75;;;;;28.57;37.23;101056.94;5000217;28;45447;-76
2021/06/15 03:50:17;;;;;;;;;11.25;10.25;;;;;28.54;37.94;101057.16;4980566;28;55845;-76
2021/06/15 03:52:42;;;;;;;;;11.50;11.50;;;;;28.54;37.95;101051.78;4999112;28;45267;-75
2021/06/15 03:55:09;;;;;;;;;10.75;10.50;;;;;28.54;37.97;101051.78;4964689;28;45373;-76
2021/06/15 03:57:41;;;;;;;;;11.25;9.25;;;;;28.54;37.32;101045.53;4981862;28;45370;-76
2021/06/15 04:00:07;;;;;;;;;10.75;10.00;;;;;28.54;37.93;101051.78;4988531;28;45448;-76
2021/06/15 04:02:33;;;;;;;;;12.25;10.50;;;;;28.48;37.17;101052.13;4999559;28;45439;-76
2021/06/15 04:04:58;;;;;;;;;11.25;10.00;;;;;28.45;37.60;101038.91;4964618;28;48371;-76
2021/06/15 04:07:24;;;;;;;;;9.75;9.75;;;;;28.43;37.61;101043.50;4964655;28;45426;-75
2021/06/15 04:09:51;;;;;;;;;12.25;12.00;;;;;28.44;37.52;101045.22;4964604;28;45573;-75
2021/06/15 04:12:17;;;;;;;;;9.00;9.00;;;;;28.43;37.40;101039.00;4964584;28;45200;-75
2021/06/15 04:14:44;;;;;;;;;8.50;8.50;;;;;28.48;37.21;101041.41;4955561;28;47112;-75
2021/06/15 04:17:09;;;;;;;;;11.00;9.50;;;;;28.48;37.36;101046.75;4982608;28;45449;-76
2021/06/15 04:19:43;;;;;;;;;9.00;9.00;;;;;28.52;37.83;101051.00;4964572;28;45267;-76
2021/06/15 04:22:09;;;;;;;;;10.75;10.50;;;;;28.53;37.36;101055.41;4964295;28;45297;-77
2021/06/15 04:24:35;;;;;;;;;11.25;10.25;;;;;28.52;37.46;101063.56;4972809;28;45450;-76
2021/06/15 04:27:00;;;;;;;;;8.75;8.75;;;;;28.50;37.53;101054.75;4984823;28;45469;-75
2021/06/15 04:29:29;;;;;;;;;9.00;9.00;;;;;28.49;36.85;101053.84;4980276;28;45444;-74
2021/06/15 04:32:04;;;;;;;;;8.75;8.00;;;;;28.46;37.04;101061.25;4964313;28;45276;-76
2021/06/15 04:34:29;;;;;;;;;9.00;8.00;;;;;28.44;37.34;101067.56;4974802;28;46899;-75
2021/06/15 04:36:56;;;;;;;;;10.00;10.00;;;;;28.44;37.42;101061.34;4966646;28;45457;-76
2021/06/15 04:39:22;;;;;;;;;10.00;9.00;;;;;28.44;37.07;101066.72;4990799;28;45171;-76
2021/06/15 04:41:59;;;;;;;;;10.00;10.00;;;;;28.46;37.47;101067.47;4976932;28;45314;-75
2021/06/15 04:44:26;;;;;;;;;10.00;10.00;;;;;28.42;36.77;101069.50;4981156;28;45504;-75
2021/06/15 04:46:55;;;;;;;;;11.25;9.75;;;;;28.47;36.87;101077.25;4979749;28;45528;-75
2021/06/15 04:49:32;;;;;;;;;11.50;10.00;;;;;28.45;36.51;101076.50;4964353;28;45252;-76
2021/06/15 04:51:59;;;;;;;;;9.50;8.75;;;;;28.44;37.13;101080.13;4976182;28;46144;-75
2021/06/15 04:54:29;;;;;;;;;11.50;10.75;;;;;28.46;37.51;101082.72;4985702;28;46576;-72
2021/06/15 04:57:01;;;;;;;;;10.75;10.00;;;;;28.42;37.04;101076.69;4980432;28;45307;-75
2021/06/15 04:59:27;;;;;;;;;9.00;9.00;;;;;28.43;37.46;101094.53;4961311;28;45347;-78
2021/06/15 05:01:52;;;;;;;;;11.25;9.50;;;;;28.31;37.31;101073.75;4987965;28;45511;-78
2021/06/15 05:04:17;;;;;;;;;12.00;12.00;;;;;28.35;37.66;101091.44;4997371;28;64300;-79
2021/06/15 05:06:46;;;;;;;;;12.00;11.25;;;;;28.36;37.80;101095.84;4979889;28;45341;-76
2021/06/15 05:09:21;;;;;;;;;13.00;11.75;;;;;28.37;38.04;101106.47;4961981;28;45389;-75
2021/06/15 05:11:49;;;;;;;;;11.25;11.00;;;;;28.32;37.58;101102.34;4994415;28;45147;-77
2021/06/15 05:14:15;;;;;;;;;14.00;14.00;;;;;28.24;37.62;101115.34;4982633;28;46544;-75
2021/06/15 05:16:40;;;;;;;;;13.50;12.50;;;;;28.10;38.37;101098.19;4989397;28;45422;-76
2021/06/15 05:19:06;;;;;;;;;15.00;13.00;;;;;28.05;38.21;101108.31;4979658;28;45438;-79
2021/06/15 05:21:41;;;;;;;;;11.00;11.00;;;;;28.03;37.67;101120.13;4980687;28;45428;-73
2021/06/15 05:24:12;;;;;;;;;13.00;11.25;;;;;27.96;38.08;101113.34;4979566;28;47798;-83
2021/06/15 05:26:37;;;;;;;;;12.50;11.75;;;;;27.95;38.55;101119.69;4975160;28;45207;-82
2021/06/15 05:29:03;;;;;;;;;12.00;10.75;;;;;27.88;38.14;101111.13;4966667;28;51048;-81
2021/06/15 05:31:28;;;;;;;;;15.75;13.75;;;;;27.85;38.36;101122.91;4997283;28;45306;-77
2021/06/15 05:33:57;;;;;;;;;15.75;12.00;;;;;27.86;37.75;101126.44;4983824;28;52849;-79
2021/06/15 05:36:22;;;;;;;;;16.25;15.25;;;;;27.81;37.89;101126.72;4976198;28;45547;-77
2021/06/15 05:38:47;;;;;;;;;16.50;15.50;;;;;27.74;37.65;101119.97;5020357;28;57049;-77
2021/06/15 05:41:15;;;;;;;;;12.50;12.50;;;;;27.63;38.59;101127.72;5008842;28;45395;-76
2021/06/15 05:43:41;;;;;;;;;14.00;10.75;;;;;27.57;38.02;101123.56;4987609;28;46078;-81
2021/06/15 05:46:06;;;;;;;;;12.75;11.25;;;;;27.48;38.52;101129.44;4976491;28;45346;-81
2021/06/15 05:48:32;;;;;;;;;14.50;13.25;;;;;27.40;38.25;101128.97;5002799;28;50667;-83
2021/06/15 05:50:57;;;;;;;;;13.25;12.25;;;;;27.30;38.41;101127.75;4990435;28;45290;-82
2021/06/15 05:53:23;;;;;;;;;14.25;12.75;;;;;27.21;38.32;101133.63;4965839;28;61669;-86
2021/06/15 05:55:49;;;;;;;;;15.00;14.00;;;;;27.13;38.44;101131.34;5014703;28;45282;-84
2021/06/15 05:58:14;;;;;;;;;14.25;14.00;;;;;27.09;38.89;101135.13;4975706;28;45422;-82
2021/06/15 06:00:41;;;;;;;;;12.25;10.25;;;;;27.02;38.81;101137.25;5016975;28;45312;-81
2021/06/15 06:03:06;;;;;;;;;12.50;12.25;;;;;27.03;38.61;101138.16;4993662;28;47207;-85
2021/06/15 06:08:24;;;;;;;;;12.75;12.75;;;;;26.99;38.69;101137.38;4981758;28;45290;-84
2021/06/15 06:10:52;;;;;;;;;13.50;12.75;;;;;26.96;39.11;101128.66;4989785;28;45547;-82
2021/06/15 06:13:19;;;;;;;;;14.00;14.00;;;;;26.90;38.67;101132.50;5013651;28;46019;-82
2021/06/15 06:15:44;;;;;;;;;16.75;16.00;;;;;26.91;38.40;101130.69;4971501;28;45380;-87
2021/06/15 06:18:11;;;;;;;;;14.00;13.75;;;;;26.91;39.26;101128.88;5012619;28;59905;-79
2021/06/15 06:20:39;;;;;;;;;11.75;11.50;;;;;26.93;39.11;101128.81;5011854;28;45470;-87
2021/06/15 06:23:05;;;;;;;;;14.00;14.00;;;;;26.96;38.33;101118.81;5012040;28;47172;-90
2021/06/15 06:25:31;;;;;;;;;15.00;12.00;;;;;27.02;38.97;101131.03;4996266;28;45380;-88
2021/06/15 06:27:56;;;;;;;;;12.25;11.25;;;;;27.03;38.62;101125.63;5005129;28;45282;-85
2021/06/15 06:30:22;;;;;;;;;14.50;12.50;;;;;27.09;37.75;101128.91;4988299;28;45468;-88
2021/06/15 06:32:48;;;;;;;;;15.00;14.75;;;;;27.14;38.03;101132.22;4979029;28;45421;-78
2021/06/15 06:35:13;;;;;;;;;13.00;12.00;;;;;27.07;37.84;101115.59;4969178;28;45365;-79
2021/06/15 06:37:39;;;;;;;;;13.25;13.25;;;;;27.08;38.43;101113.75;4988893;28;45515;-77
2021/06/15 06:40:05;;;;;;;;;11.75;9.00;;;;;27.24;38.78;101136.13;5008671;28;45459;-87
2021/06/15 06:42:31;;;;;;;;;13.75;13.00;;;;;27.26;38.03;101128.84;5001894;28;47403;-85
2021/06/15 06:44:56;;;;;;;;;13.00;13.00;;;;;27.29;37.80;101123.34;5002529;28;45282;-82
2021/06/15 06:47:22;;;;;;;;;12.25;12.00;;;;;27.30;38.29;101125.94;5021650;28;56881;-82
2021/06/15 06:49:47;;;;;;;;;16.50;15.00;;;;;27.31;37.92;101116.09;5019571;28;45373;-82
2021/06/15 06:52:12;;;;;;;;;14.50;14.00;;;;;27.36;37.91;101122.03;5009639;28;50361;-83
2021/06/15 06:54:38;;;;;;;;;15.25;12.50;;;;;27.37;38.30;101125.63;4989047;28;45195;-83
2021/06/15 06:57:03;;;;;;;;;11.00;11.00;;;;;27.36;38.38;101126.53;4985788;28;45844;-84
2021/06/15 06:59:29;;;;;;;;;11.00;11.00;;;;;27.30;37.48;101119.72;5015700;28;48918;-82
2021/06/15 07:01:54;;;;;;;;;16.00;13.25;;;;;27.30;38.69;101119.72;4994545;28;45443;-84
2021/06/15 07:04:20;;;;;;;;;13.50;12.00;;;;;27.39;38.72;101129.06;4985500;28;45329;-84
2021/06/15 07:06:45;;;;;;;;;12.75;12.25;;;;;27.46;37.99;101130.47;5001511;28;45320;-84
2021/06/15 07:09:11;;;;;;;;;13.00;13.00;;;;;27.50;38.69;101135.56;4984243;28;60615;-84
2021/06/15 07:11:36;;;;;;;;;17.50;16.00;;;;;27.57;38.17;101133.41;4968507;28;46905;-83
2021/06/15 07:14:01;;;;;;;;;12.75;12.00;;;;;27.59;37.53;101124.31;5007090;28;45466;-83
2021/06/15 07:16:27;;;;;;;;;14.75;14.00;;;;;27.67;37.58;101131.97;4987293;28;61981;-88
2021/06/15 07:18:52;;;;;;;;;17.25;16.25;;;;;27.71;37.53;101135.34;4994259;28;45282;-87
2021/06/15 07:21:18;;;;;;;;;14.75;13.00;;;;;27.72;37.86;101132.59;4997922;28;47454;-87
2021/06/15 07:23:43;;;;;;;;;14.50;14.50;;;;;27.75;37.93;101137.78;5010381;28;45433;-88
2021/06/15 07:26:09;;;;;;;;;12.25;11.00;;;;;27.81;37.39;101137.44;5012703;28;45310;-87
2021/06/15 07:28:34;;;;;;;;;17.00;12.50;;;;;27.85;37.84;101130.06;4999562;28;45884;-87
2021/06/15 07:31:00;;;;;;;;;15.25;14.75;;;;;27.93;37.51;101132.31;4996556;28;56475;-91
2021/06/15 07:33:25;;;;;;;;;17.00;11.25;;;;;27.99;36.71;101134.66;4994851;28;45187;-90
2021/06/15 07:35:51;;;;;;;;;14.50;12.00;;;;;28.03;37.02;101131.72;5011348;28;45167;-87
2021/06/15 07:38:16;;;;;;;;;17.50;14.25;;;;;28.07;37.17;101124.38;4966631;28;45235;-87
2021/06/15 07:40:42;;;;;;;;;14.50;13.50;;;;;28.15;37.89;101127.47;4998837;28;45258;-88
2021/06/15 07:43:07;;;;;;;;;13.00;11.50;;;;;28.16;37.10;101113.97;5017074;28;45334;-88
2021/06/15 07:45:35;;;;;;;;;15.50;14.25;;;;;28.23;37.65;101105.53;5003614;28;50368;-86
2021/06/15 07:48:00;;;;;;;;;16.25;12.75;;;;;28.28;38.26;101111.50;4993329;28;45393;-86
2021/06/15 07:50:26;;;;;;;;;17.75;15.75;;;;;28.32;37.34;101105.00;4989649;28;70749;-84
2021/06/15 07:52:51;;;;;;;;;14.75;13.00;;;;;28.35;37.78;101115.59;5007584;28;45249;-82
2021/06/15 07:55:17;;;;;;;;;15.50;13.00;;;;;28.35;38.56;101113.78;5019131;28;45442;-89
2021/06/15 07:57:43;;;;;;;;;12.25;12.25;;;;;28.36;37.18;101106.59;5003449;28;45435;-86
2021/06/15 08:00:09;;;;;;;;;15.75;14.00;;;;;28.41;37.10;101099.13;4980075;28;46930;-85
2021/06/15 08:02:34;;;;;;;;;17.00;15.25;;;;;28.51;37.02;101111.03;4990580;28;45465;-86
2021/06/15 08:05:00;;;;;;;;;12.25;11.50;;;;;28.55;36.90;101103.66;4967602;28;45407;-87
2021/06/15 08:07:25;;;;;;;;;13.00;13.00;;;;;28.56;36.87;101105.38;4974567;28;45282;-77
2021/06/15 08:09:51;;;;;;;;;16.00;15.00;;;;;28.60;36.63;101105.13;4982216;28;46976;-83
2021/06/15 08:12:17;;;;;;;;;22.25;15.00;;;;;28.63;36.79;101110.28;5014874;28;45247;-86
2021/06/15 08:14:43;;;;;;;;;14.50;13.00;;;;;28.64;36.67;101113.84;4957534;28;45268;-83
2021/06/15 08:17:12;;;;;;;;;16.00;14.50;;;;;28.62;36.53;101110.41;4970181;28;45223;-86
2021/06/15 08:19:37;;;;;;;;;14.00;14.00;;;;;28.64;36.59;101109.34;5013652;28;45416;-83
2021/06/15 08:22:02;;;;;;;;;14.75;13.25;;;;;28.63;36.74;101107.63;4989322;28;56301;-86
2021/06/15 08:24:28;;;;;;;;;19.00;16.75;;;;;28.66;36.09;101109.25;4993527;28;45484;-88
2021/06/15 08:26:53;;;;;;;;;18.25;14.50;;;;;28.71;36.49;101101.78;4992495;28;45534;-82
2021/06/15 08:29:19;;;;;;;;;17.50;16.75;;;;;28.76;37.29;101106.84;5010071;28;57562;-82
2021/06/15 08:31:44;;;;;;;;;15.00;13.75;;;;;28.78;36.30;101110.34;5004622;28;62791;-78
2021/06/15 08:34:11;;;;;;;;;15.50;15.25;;;;;28.81;36.00;101104.75;4975179;28;49624;-86
2021/06/15 08:36:36;;;;;;;;;16.50;14.50;;;;;28.82;36.10;101106.50;4985470;28;45531;-88
2021/06/15 08:39:04;;;;;;;;;17.00;15.25;;;;;28.77;35.76;101090.66;5000910;28;45438;-87
2021/06/15 08:41:30;;;;;;;;;16.00;16.00;;;;;28.75;36.26;101086.31;4978796;28;45904;-89
2021/06/15 08:43:55;;;;;;;;;15.25;14.25;;;;;28.85;36.31;101103.63;4983586;28;45473;-87
2021/06/15 08:46:20;;;;;;;;;20.00;18.00;;;;;28.85;35.70;101104.50;4991289;28;44862;-90
2021/06/15 08:48:46;;;;;;;;;15.25;14.75;;;;;28.82;36.29;101095.75;4991438;28;46137;-89
2021/06/15 08:51:11;;;;;;;;;15.75;15.25;;;;;28.85;35.73;101103.63;5019535;28;62064;-88
2021/06/15 08:53:37;;;;;;;;;17.00;16.00;;;;;28.88;35.90;101108.81;4964824;28;45296;-89
2021/06/15 08:56:20;;;;;;;;;15.00;14.75;;;;;28.82;36.45;101093.06;5008141;28;45620;-90
2021/06/15 08:59:08;;;;;;;;;15.25;15.00;;;;;28.92;36.04;101105.00;5008900;28;45682;-92
2021/06/15 09:01:33;;;;;;;;;17.25;16.50;;;;;28.93;36.25;101107.63;5002132;28;45460;-85
2021/06/15 09:03:59;;;;;;;;;19.50;16.75;;;;;28.95;36.04;101097.63;4988840;28;55928;-85
2021/06/15 09:06:24;;;;;;;;;16.75;16.00;;;;;28.91;35.86;101109.50;5005629;28;57576;-85
2021/06/15 09:08:56;;;;;;;;;12.75;12.75;;;;;28.89;35.69;101107.84;4989989;28;60838;-90
2021/06/15 09:11:22;;;;;;;;;15.75;14.00;;;;;28.91;36.13;101116.72;4969021;28;45535;-84
2021/06/15 09:13:48;;;;;;;;;16.50;15.25;;;;;28.93;35.49;101106.72;4986011;28;45372;-80
2021/06/15 09:16:28;;;;;;;;;14.75;13.25;;;;;28.98;35.38;101104.63;4966233;28;45605;-85
2021/06/15 09:18:55;;;;;;;;;20.00;16.50;;;;;28.93;35.40;101104.03;4968658;28;47483;-83
2021/06/15 09:21:45;;;;;;;;;18.50;15.75;;;;;28.90;35.63;101105.09;4986583;28;45398;-82
2021/06/15 09:24:28;;;;;;;;;16.75;15.00;;;;;28.95;35.35;101111.06;4979164;28;45466;-86
2021/06/15 09:26:57;;;;;;;;;15.75;13.25;;;;;29.00;35.29;101113.44;4999121;28;45281;-85
2021/06/15 09:29:49;;;;;;;;;12.25;12.25;;;;;29.06;35.17;101112.22;5003553;28;45526;-81
2021/06/15 09:32:16;;;;;;;;;13.50;12.50;;;;;29.06;35.06;101109.53;4992254;28;45290;-84
2021/06/15 09:35:05;;;;;;;;;14.50;12.50;;;;;29.10;35.30;101111.91;5000606;28;45325;-87
2021/06/15 09:37:34;;;;;;;;;14.00;11.00;;;;;29.10;34.78;101109.22;4986033;28;45368;-86
2021/06/15 09:40:01;;;;;;;;;13.50;11.00;;;;;29.11;34.65;101105.59;4986318;28;45294;-88
2021/06/15 09:42:26;;;;;;;;;15.00;13.75;;;;;29.15;35.53;101104.44;4982292;28;45953;-87
2021/06/15 09:44:52;;;;;;;;;14.25;11.50;;;;;29.16;35.52;101103.47;4990091;28;45323;-87
2021/06/15 09:47:20;;;;;;;;;14.25;12.00;;;;;29.20;35.49;101094.28;4993570;28;45255;-88
2021/06/15 09:49:46;;;;;;;;;12.50;12.25;;;;;29.22;34.80;101096.88;4990746;28;47213;-87
2021/06/15 09:52:25;;;;;;;;;13.75;13.00;;;;;29.25;35.22;101102.03;5006628;28;45349;-85
2021/06/15 09:54:56;;;;;;;;;14.75;12.50;;;;;29.22;35.16;101113.84;5001672;28;45531;-83
2021/06/15 09:57:26;;;;;;;;;13.00;13.00;;;;;29.19;34.60;101106.00;5008953;28;45578;-88
2021/06/15 10:00:08;;;;;;;;;14.50;14.50;;;;;29.20;35.31;101101.47;5013948;28;45340;-84
2021/06/15 10:02:34;;;;;;;;;16.50;12.75;;;;;29.19;34.87;101105.09;5005150;28;45370;-87
2021/06/15 10:05:22;;;;;;;;;14.75;13.25;;;;;29.09;35.07;101090.50;5000229;28;45597;-86
2021/06/15 10:07:48;;;;;;;;;13.25;12.75;;;;;29.17;34.68;101107.88;4999849;28;45306;-87
2021/06/15 10:10:16;;;;;;;;;13.50;11.50;;;;;29.04;35.03;101088.13;4989481;28;47097;-88
2021/06/15 10:12:41;;;;;;;;;14.50;14.00;;;;;28.99;34.60;101080.34;4986416;28;45334;-87
2021/06/15 10:15:08;;;;;;;;;12.50;12.00;;;;;29.11;35.06;101094.84;5003512;28;45534;-83
2021/06/15 10:17:33;;;;;;;;;11.25;11.00;;;;;29.21;34.57;101106.75;4994342;28;45365;-83
2021/06/15 10:19:59;;;;;;;;;14.50;11.75;;;;;29.06;34.54;101078.13;4993288;28;46135;-85
2021/06/15 10:22:24;;;;;;;;;10.25;10.00;;;;;29.19;34.40;101103.31;4974464;28;61405;-84
2021/06/15 10:24:49;;;;;;;;;12.00;12.00;;;;;29.07;34.21;101093.31;4970414;28;45562;-89
2021/06/15 10:27:15;;;;;;;;;11.50;10.75;;;;;29.14;34.67;101091.09;4994270;28;45289;-83
2021/06/15 10:29:41;;;;;;;;;9.75;9.75;;;;;29.17;33.83;101085.53;5006560;28;45183;-86
2021/06/15 10:32:23;;;;;;;;;10.50;10.00;;;;;29.26;33.13;101098.38;5001044;28;45323;-76
2021/06/15 10:34:53;;;;;;;;;11.75;11.25;;;;;29.30;33.66;101089.19;5007738;28;45450;-84
2021/06/15 10:37:31;;;;;;;;;12.75;10.75;;;;;29.31;33.77;101095.41;4998429;28;45484;-86
2021/06/15 10:39:56;;;;;;;;;10.00;10.00;;;;;29.24;33.19;101090.41;5008084;28;45444;-87
2021/06/15 10:42:27;;;;;;;;;9.25;8.00;;;;;29.25;34.04;101078.69;5003300;28;45373;-82
2021/06/15 10:45:21;;;;;;;;;11.50;11.50;;;;;29.32;33.12;101089.06;4970293;28;45870;-82
2021/06/15 10:48:05;;;;;;;;;9.25;9.25;;;;;29.34;33.75;101090.69;4991315;28;45597;-82
2021/06/15 10:50:35;;;;;;;;;12.50;11.25;;;;;29.35;33.89;101086.19;4992813;28;47431;-83
2021/06/15 10:53:02;;;;;;;;;11.25;11.25;;;;;29.35;34.34;101087.03;4991129;28;45380;-83
2021/06/15 10:55:46;;;;;;;;;11.50;11.00;;;;;29.32;34.03;101081.88;4984996;28;45521;-82
2021/06/15 10:58:35;;;;;;;;;9.00;9.00;;;;;29.30;34.67;101073.03;4987933;28;45502;-82
2021/06/15 11:01:24;;;;;;;;;9.75;8.50;;;;;29.39;33.41;101079.66;4982205;28;47406;-81
2021/06/15 11:04:00;;;;;;;;;12.00;10.00;;;;;29.40;33.89;101078.69;4978845;28;45632;-82
2021/06/15 11:06:28;;;;;;;;;11.75;11.75;;;;;29.41;33.75;101080.41;4968663;28;45330;-81
2021/06/15 11:09:03;;;;;;;;;11.25;11.25;;;;;29.42;34.74;101083.00;5002495;28;45468;-82
2021/06/15 11:11:34;;;;;;;;;13.00;13.00;;;;;29.42;34.59;101074.94;4992695;28;48118;-82
2021/06/15 11:14:10;;;;;;;;;11.25;11.00;;;;;29.43;34.64;101073.97;5002215;28;45294;-81
2021/06/15 11:16:46;;;;;;;;;13.00;11.50;;;;;29.42;33.98;101060.63;4968879;28;45333;-81
2021/06/15 11:19:14;;;;;;;;;10.75;10.75;;;;;29.43;34.05;101062.34;4978139;28;46673;-83
2021/06/15 11:21:47;;;;;;;;;10.25;10.25;;;;;29.44;34.61;101064.06;5001958;28;48135;-79
2021/06/15 11:24:25;;;;;;;;;10.00;10.00;;;;;29.46;34.88;101064.88;4970102;28;45800;-78